createdAt,value
2023-02-13T00:00:21.635Z,6.21
2023-02-13T00:02:48.371Z,6.17
2023-02-13T00:05:15.133Z,6.15
2023-02-13T00:07:41.849Z,6.20
2023-02-13T00:10:09.293Z,6.18
2023-02-13T00:12:36.216Z,6.14
2023-02-13T00:15:03.598Z,6.16
2023-02-13T00:17:30.553Z,6.11
2023-02-13T00:19:57.239Z,6.04
2023-02-13T00:22:24.483Z,6.02
2023-02-13T00:24:51.402Z,6.01
2023-02-13T00:27:18.323Z,5.97
2023-02-13T00:29:45.311Z,5.96
2023-02-13T00:32:14.834Z,5.93
2023-02-13T00:34:41.642Z,5.87
2023-02-13T00:37:08.408Z,5.92
2023-02-13T00:39:35.253Z,5.85
2023-02-13T00:42:01.915Z,5.87
2023-02-13T00:44:28.676Z,5.93
2023-02-13T00:46:55.435Z,5.88
2023-02-13T00:49:23.580Z,5.83
2023-02-13T00:51:50.311Z,5.83
2023-02-13T00:54:17.130Z,5.85
2023-02-13T00:56:44.163Z,5.91
2023-02-13T00:59:13.146Z,5.88
2023-02-13T01:01:39.894Z,5.88
2023-02-13T01:04:06.628Z,5.84
2023-02-13T01:06:33.314Z,5.87
2023-02-13T01:09:00.041Z,5.85
2023-02-13T01:11:26.780Z,5.92
2023-02-13T01:13:53.489Z,5.91
2023-02-13T01:16:20.735Z,5.85
2023-02-13T01:18:47.601Z,5.88
2023-02-13T01:21:19.110Z,5.86
2023-02-13T01:23:46.261Z,5.88
2023-02-13T01:26:19.649Z,5.80
2023-02-13T01:28:46.754Z,5.77
2023-02-13T01:31:13.983Z,5.78
2023-02-13T01:33:40.702Z,5.81
2023-02-13T01:36:12.182Z,5.81
2023-02-13T01:38:39.088Z,5.78
2023-02-13T01:41:06.354Z,5.76
2023-02-13T01:43:48.415Z,5.73
2023-02-13T01:46:23.582Z,5.71
2023-02-13T01:48:51.700Z,5.68
2023-02-13T01:51:26.296Z,5.68
2023-02-13T01:54:04.579Z,5.61
2023-02-13T01:56:37.592Z,5.59
2023-02-13T01:59:10.809Z,5.60
2023-02-13T02:01:38.152Z,5.60
2023-02-13T02:04:13.617Z,5.64
2023-02-13T02:06:45.411Z,5.63
2023-02-13T02:09:19.549Z,5.59
2023-02-13T02:12:03.547Z,5.59
2023-02-13T02:14:30.705Z,5.56
2023-02-13T02:16:57.957Z,5.48
2023-02-13T02:19:48.385Z,5.49
2023-02-13T02:22:15.139Z,5.41
2023-02-13T02:25:00.114Z,5.37
2023-02-13T02:27:47.104Z,5.44
2023-02-13T02:30:42.169Z,5.41
2023-02-13T02:33:18.849Z,5.42
2023-02-13T02:36:07.633Z,5.47
2023-02-13T02:39:11.786Z,5.42
2023-02-13T02:41:42.939Z,5.43
2023-02-13T02:44:28.863Z,5.40
2023-02-13T02:47:21.420Z,5.41
2023-02-13T02:50:00.254Z,5.41
2023-02-13T02:52:36.984Z,5.34
2023-02-13T02:55:11.971Z,5.37
2023-02-13T02:58:17.420Z,5.36
2023-02-13T03:01:03.714Z,5.34
2023-02-13T03:03:49.726Z,5.39
2023-02-13T03:06:35.991Z,5.34
2023-02-13T03:09:25.522Z,5.40
2023-02-13T03:12:12.464Z,5.38
2023-02-13T03:14:39.314Z,5.39
2023-02-13T03:17:24.618Z,5.38
2023-02-13T03:20:16.497Z,5.45
2023-02-13T03:23:02.063Z,5.42
2023-02-13T03:25:50.411Z,5.36
2023-02-13T03:28:47.085Z,5.30
2023-02-13T03:31:24.655Z,5.31
2023-02-13T03:34:13.626Z,5.31
2023-02-13T03:37:35.073Z,5.23
2023-02-13T03:40:10.480Z,5.26
2023-02-13T03:42:53.097Z,5.32
2023-02-13T03:45:44.540Z,5.22
2023-02-13T03:48:32.017Z,5.27
2023-02-13T03:51:00.303Z,5.25
2023-02-13T03:53:29.759Z,5.31
2023-02-13T03:56:16.998Z,5.39
2023-02-13T03:59:05.519Z,5.34
2023-02-13T04:01:34.820Z,5.28
2023-02-13T04:04:08.566Z,5.30
2023-02-13T04:06:47.050Z,5.28
2023-02-13T04:09:13.925Z,5.27
2023-02-13T04:11:49.283Z,5.27
2023-02-13T04:14:20.713Z,5.28
2023-02-13T04:16:50.538Z,5.27
2023-02-13T04:19:17.814Z,5.26
2023-02-13T04:21:44.738Z,5.25
2023-02-13T04:24:12.347Z,5.32
2023-02-13T04:26:43.289Z,5.27
2023-02-13T04:29:10.116Z,5.34
2023-02-13T04:31:36.965Z,5.37
2023-02-13T04:34:03.916Z,5.31
2023-02-13T04:36:30.743Z,5.34
2023-02-13T04:38:58.024Z,5.25
2023-02-13T04:41:24.798Z,5.25
2023-02-13T04:43:52.616Z,5.23
2023-02-13T04:46:19.630Z,5.22
2023-02-13T04:48:46.420Z,5.19
2023-02-13T04:51:13.513Z,5.21
2023-02-13T04:53:40.235Z,5.29
2023-02-13T04:56:07.013Z,5.34
2023-02-13T04:58:33.760Z,5.28
2023-02-13T05:01:00.615Z,5.18
2023-02-13T05:03:29.851Z,5.16
2023-02-13T05:05:56.644Z,5.23
2023-02-13T05:08:23.349Z,5.23
2023-02-13T05:10:50.189Z,5.22
2023-02-13T05:13:16.852Z,5.25
2023-02-13T05:15:43.666Z,5.16
2023-02-13T05:18:10.358Z,5.16
2023-02-13T05:20:37.100Z,5.17
2023-02-13T05:26:29.043Z,5.13
2023-02-13T05:29:46.825Z,5.21
2023-02-13T05:33:08.844Z,5.21
2023-02-13T05:36:46.820Z,5.17
2023-02-13T06:06:48.784Z,5.13
2023-02-13T07:08:28.858Z,5.23
2023-02-13T07:10:56.079Z,5.29
2023-02-13T07:13:22.981Z,5.32
2023-02-13T07:15:49.693Z,5.31
2023-02-13T07:18:16.423Z,5.34
2023-02-13T07:20:43.219Z,5.33
2023-02-13T07:23:12.550Z,5.35
2023-02-13T07:25:39.387Z,5.36
2023-02-13T07:28:07.309Z,5.35
2023-02-13T07:30:34.875Z,5.33
2023-02-13T07:33:03.355Z,5.35
2023-02-13T07:35:30.199Z,5.30
2023-02-13T07:37:57.192Z,5.30
2023-02-13T07:40:23.967Z,5.33
2023-02-13T07:42:50.707Z,5.35
2023-02-13T07:45:17.956Z,5.31
2023-02-13T07:47:44.648Z,5.32
2023-02-13T07:50:12.006Z,5.36
2023-02-13T07:52:38.750Z,5.39
2023-02-13T07:55:06.057Z,5.41
2023-02-13T07:57:33.712Z,5.40
2023-02-13T08:00:00.468Z,5.40
2023-02-13T08:02:27.210Z,5.47
2023-02-13T08:04:54.039Z,5.43
2023-02-13T08:07:20.804Z,5.45
2023-02-13T08:10:08.664Z,5.47
2023-02-13T08:12:36.116Z,5.40
2023-02-13T08:15:04.126Z,5.44
2023-02-13T08:17:30.934Z,5.49
2023-02-13T08:19:58.020Z,5.51
2023-02-13T08:22:24.777Z,5.55
2023-02-13T08:24:51.568Z,5.50
2023-02-13T08:27:18.253Z,5.45
2023-02-13T08:29:44.959Z,5.56
2023-02-13T08:32:11.756Z,5.59
2023-02-13T08:34:38.574Z,5.53
2023-02-13T08:37:05.301Z,5.52
2023-02-13T08:39:32.053Z,5.64
2023-02-13T08:41:58.739Z,5.62
2023-02-13T08:44:25.582Z,5.66
2023-02-13T08:46:52.482Z,5.71
2023-02-13T08:49:19.187Z,5.73
2023-02-13T08:51:45.893Z,5.72
2023-02-13T08:54:12.555Z,5.66
2023-02-13T08:56:39.285Z,5.59
2023-02-13T08:59:05.980Z,5.65
2023-02-13T09:01:33.023Z,5.67
2023-02-13T09:03:59.890Z,5.66
2023-02-13T09:06:27.707Z,5.63
2023-02-13T09:08:54.703Z,5.64
2023-02-13T09:11:23.535Z,5.66
2023-02-13T09:13:53.148Z,5.66
2023-02-13T09:16:19.970Z,5.67
2023-02-13T09:18:48.570Z,5.71
2023-02-13T09:21:16.134Z,5.77
2023-02-13T09:23:42.866Z,5.82
2023-02-13T09:26:12.022Z,5.82
2023-02-13T09:28:39.180Z,5.80
2023-02-13T09:31:32.414Z,5.82
2023-02-13T09:33:59.260Z,5.89
2023-02-13T09:36:26.022Z,5.96
2023-02-13T09:38:54.970Z,6.04
2023-02-13T09:41:25.643Z,6.03
2023-02-13T09:43:59.350Z,5.99
2023-02-13T09:46:46.620Z,5.97
2023-02-13T09:49:16.763Z,5.96
2023-02-13T09:51:44.509Z,5.98
2023-02-13T09:54:16.388Z,6.05
2023-02-13T09:57:07.307Z,6.01
2023-02-13T09:59:34.067Z,5.96
2023-02-13T10:02:14.501Z,5.97
2023-02-13T10:04:56.733Z,5.98
2023-02-13T10:07:45.786Z,5.98
2023-02-13T10:10:21.995Z,6.00
2023-02-13T10:12:56.684Z,5.99
2023-02-13T10:15:49.064Z,6.04
2023-02-13T10:18:18.020Z,6.04
2023-02-13T10:20:57.096Z,6.01
2023-02-13T10:23:40.746Z,6.13
2023-02-13T10:26:13.000Z,6.14
2023-02-13T10:29:25.609Z,6.15
2023-02-13T10:31:55.314Z,6.15
2023-02-13T10:34:25.546Z,6.21
2023-02-13T10:36:52.284Z,6.20
2023-02-13T10:39:24.439Z,6.17
2023-02-13T10:41:52.649Z,6.21
2023-02-13T10:44:46.274Z,6.23
2023-02-13T10:47:25.943Z,6.23
2023-02-13T10:50:04.178Z,6.17
2023-02-13T10:52:56.442Z,6.13
2023-02-13T10:55:41.934Z,6.15
2023-02-13T10:58:14.624Z,6.10
2023-02-13T11:00:56.554Z,6.07
2023-02-13T11:03:25.699Z,6.01
2023-02-13T11:05:53.756Z,6.11
2023-02-13T11:08:23.614Z,6.08
2023-02-13T11:21:31.432Z,6.05
2023-02-13T12:06:53.003Z,6.21
2023-02-13T12:19:01.979Z,6.10
2023-02-13T12:41:25.409Z,6.03
2023-02-13T12:51:46.018Z,5.83
2023-02-13T12:54:46.809Z,5.77
2023-02-13T12:57:56.649Z,5.73
2023-02-13T13:01:07.171Z,5.76
2023-02-13T13:22:53.720Z,5.73
2023-02-13T13:25:54.808Z,5.76
2023-02-13T13:29:29.727Z,5.68
2023-02-13T13:46:57.616Z,5.85
2023-02-13T13:50:17.598Z,5.88
2023-02-13T13:53:08.737Z,5.80
2023-02-13T13:55:54.352Z,5.86
2023-02-13T14:02:45.856Z,5.78
2023-02-13T14:06:22.866Z,5.73
2023-02-13T14:17:06.957Z,5.61
2023-02-13T14:23:22.617Z,5.66
2023-02-13T14:34:20.505Z,5.48
2023-02-13T14:40:18.133Z,5.54
2023-02-13T14:42:46.770Z,5.57
2023-02-13T14:45:19.207Z,5.57
2023-02-13T14:47:54.195Z,5.58
2023-02-13T14:50:45.860Z,5.59
2023-02-13T14:53:27.333Z,5.56
2023-02-13T14:56:01.176Z,5.64
2023-02-13T14:58:33.747Z,5.63
2023-02-13T15:01:07.168Z,5.60
2023-02-13T15:03:44.033Z,5.54
2023-02-13T15:06:15.418Z,5.55
2023-02-13T15:08:47.463Z,5.58
2023-02-13T15:11:38.299Z,5.56
2023-02-13T15:14:17.489Z,5.48
2023-02-13T15:16:47.268Z,5.58
2023-02-13T15:19:18.809Z,5.62
2023-02-13T15:21:52.556Z,5.60
2023-02-13T15:24:20.444Z,5.64
2023-02-13T15:26:51.892Z,5.74
2023-02-13T15:29:29.267Z,5.74
2023-02-13T15:31:58.808Z,5.71
2023-02-13T15:34:27.307Z,5.60
2023-02-13T15:36:54.730Z,5.53
2023-02-13T15:39:27.535Z,5.61
2023-02-13T15:42:02.160Z,5.58
2023-02-13T15:44:32.432Z,5.52
2023-02-13T15:47:06.994Z,5.55
2023-02-13T15:49:38.869Z,5.46
2023-02-13T15:52:32.389Z,5.45
2023-02-13T15:54:59.511Z,5.47
2023-02-13T15:57:27.179Z,5.54
2023-02-13T15:59:59.153Z,5.54
2023-02-13T16:02:49.794Z,5.47
2023-02-13T16:05:24.001Z,5.49
2023-02-13T16:08:01.648Z,5.44
2023-02-13T16:10:34.195Z,5.42
2023-02-13T16:13:06.347Z,5.41
2023-02-13T16:15:36.068Z,5.41
2023-02-13T16:18:06.396Z,5.38
2023-02-13T16:20:38.528Z,5.38
2023-02-13T16:23:17.095Z,5.37
2023-02-13T16:25:44.163Z,5.37
2023-02-13T16:28:27.271Z,5.26
2023-02-13T16:30:59.979Z,5.29
2023-02-13T16:33:29.290Z,5.33
2023-02-13T16:36:10.097Z,5.32
2023-02-13T16:38:45.000Z,5.34
2023-02-13T16:41:28.914Z,5.41
2023-02-13T16:43:59.123Z,5.38
2023-02-13T16:46:34.395Z,5.42
2023-02-13T16:49:10.296Z,5.39
2023-02-13T16:51:40.078Z,5.37
2023-02-13T16:54:39.835Z,5.40
2023-02-13T16:57:20.960Z,5.38
2023-02-13T16:59:49.703Z,5.35
2023-02-13T17:02:33.682Z,5.31
2023-02-13T17:05:20.414Z,5.21
2023-02-13T17:07:53.401Z,5.25
2023-02-13T17:10:21.901Z,5.26
2023-02-13T17:12:53.013Z,5.28
2023-02-13T17:15:22.400Z,5.28
2023-02-13T17:17:56.561Z,5.20
2023-02-13T17:20:32.004Z,5.22
2023-02-13T17:23:08.593Z,5.24
2023-02-13T17:25:37.762Z,5.23
2023-02-13T17:28:18.885Z,5.17
2023-02-13T17:30:46.175Z,5.18
2023-02-13T17:33:15.799Z,5.20
2023-02-13T17:35:42.901Z,5.15
2023-02-13T17:38:10.886Z,5.16
2023-02-13T17:40:37.817Z,5.21
2023-02-13T17:43:04.749Z,5.16
2023-02-13T17:45:34.752Z,5.16
2023-02-13T17:48:01.543Z,5.21
2023-02-13T17:50:29.667Z,5.22
2023-02-13T17:52:57.100Z,5.12
2023-02-13T17:55:26.421Z,5.10
2023-02-13T17:57:56.695Z,5.05
2023-02-13T18:00:27.669Z,5.00
2023-02-13T18:02:54.964Z,5.08
2023-02-13T18:05:28.122Z,5.15
2023-02-13T18:07:55.797Z,5.18
2023-02-13T18:10:30.920Z,5.27
2023-02-13T18:13:04.011Z,5.32
2023-02-13T18:15:35.203Z,5.25
2023-02-13T18:18:08.652Z,5.21
2023-02-13T18:20:36.462Z,5.16
2023-02-13T18:23:05.406Z,5.07
2023-02-13T18:25:32.316Z,5.12
2023-02-13T18:28:14.154Z,5.06
2023-02-13T18:30:44.405Z,5.07
2023-02-13T18:33:13.329Z,5.15
2023-02-13T18:35:40.389Z,5.06
2023-02-13T18:38:07.192Z,5.03
2023-02-13T18:40:42.483Z,4.96
2023-02-13T18:43:35.354Z,4.96
2023-02-13T18:46:04.943Z,5.03
2023-02-13T18:48:32.315Z,5.01
2023-02-13T18:51:01.294Z,5.05
2023-02-13T18:53:30.602Z,5.07
2023-02-13T18:56:05.815Z,5.08
2023-02-13T18:58:33.142Z,5.11
2023-02-13T19:01:10.427Z,5.10
2023-02-13T19:03:38.406Z,5.09
2023-02-13T19:06:11.405Z,5.08
2023-02-13T19:09:00.235Z,5.10
2023-02-13T19:11:28.139Z,5.09
2023-02-13T19:13:56.826Z,5.15
2023-02-13T19:16:28.589Z,5.11
2023-02-13T19:18:57.516Z,5.08
2023-02-13T19:21:26.282Z,4.94
2023-02-13T19:23:53.372Z,4.99
2023-02-13T19:26:25.462Z,4.91
2023-02-13T19:32:27.391Z,4.90
2023-02-13T19:52:51.302Z,4.71
2023-02-13T19:56:10.991Z,4.76
2023-02-13T19:58:47.834Z,4.76
2023-02-13T20:05:39.649Z,4.77
2023-02-13T20:12:16.634Z,4.82
2023-02-13T20:15:06.370Z,4.81
2023-02-13T21:24:19.222Z,4.84
2023-02-13T21:58:12.168Z,4.75
